Time;durP1;ratioP1;P1;durP2;ratioP2;P2;SDS_P1;SDS_P2;PMS_P1;PMS_P2;Temp;Humidity;BMP_temperature;BMP_pressure;BME280_temperature;BME280_humidity;BME280_pressure;Samples;Min_cycle;Max_cycle;Signal;HPM_P1;HPM_P2
2022/07/10 00:00:13;;;;;;;7.20;2.00;;;;;;;-145.18;100.00;46654.53;5012077;28;20034;-76
2022/07/10 00:02:40;;;;;;;6.67;2.17;;;;;;;-145.18;100.00;46654.53;5011530;28;20037;-77
2022/07/10 00:05:05;;;;;;;5.13;1.83;;;;;;;-145.18;100.00;46654.53;5011587;28;20049;-78
2022/07/10 00:07:31;;;;;;;7.43;2.17;;;;;;;-145.18;100.00;46652.59;5012078;28;20105;-77
2022/07/10 00:09:56;;;;;;;4.97;1.70;;;;;;;-145.18;100.00;46650.63;5011987;28;20079;-77
2022/07/10 00:12:22;;;;;;;8.67;2.27;;;;;;;-145.18;100.00;46650.63;5011459;28;20395;-77
2022/07/10 00:14:47;;;;;;;6.27;1.87;;;;;;;-145.18;100.00;46648.69;5011988;28;20076;-75
2022/07/10 00:17:13;;;;;;;9.10;2.23;;;;;;;-145.18;100.00;46654.53;5011259;28;20124;-77
2022/07/10 00:19:38;;;;;;;6.20;1.90;;;;;;;-145.18;100.00;46646.72;5011677;28;20091;-77
2022/07/10 00:22:04;;;;;;;7.27;2.23;;;;;;;-145.18;100.00;46648.69;5011397;28;20034;-76
2022/07/10 00:24:29;;;;;;;6.87;1.80;;;;;;;-145.18;100.00;46648.69;5011965;28;20029;-76
2022/07/10 00:26:55;;;;;;;4.97;2.00;;;;;;;-145.18;100.00;46648.69;5011025;28;20121;-76
2022/07/10 00:29:20;;;;;;;6.33;1.87;;;;;;;-145.18;100.00;46650.63;5011745;28;20033;-77
2022/07/10 00:31:45;;;;;;;6.03;2.17;;;;;;;-145.18;100.00;46648.69;5011423;28;20030;-76
2022/07/10 00:34:12;;;;;;;18.43;2.70;;;;;;;-145.18;100.00;46652.59;5011341;28;20500;-74
2022/07/10 00:36:37;;;;;;;13.80;3.40;;;;;;;-145.18;100.00;46646.72;5010854;28;20029;-76
2022/07/10 00:39:03;;;;;;;16.37;2.10;;;;;;;-145.18;100.00;46644.78;5011205;28;20041;-76
2022/07/10 00:41:28;;;;;;;5.50;1.70;;;;;;;-145.18;100.00;46648.69;5010968;28;20049;-77
2022/07/10 00:44:01;;;;;;;9.50;1.97;;;;;;;-145.18;100.00;46648.69;5011075;28;20049;-77
2022/07/10 00:46:27;;;;;;;10.97;2.23;;;;;;;-145.18;100.00;46648.69;4993204;28;20025;-77
2022/07/10 00:48:54;;;;;;;13.03;2.37;;;;;;;-145.18;100.00;46652.59;5010949;28;20044;-77
2022/07/10 00:51:21;;;;;;;7.63;2.03;;;;;;;-145.18;100.00;46650.63;5010782;28;20030;-77
2022/07/10 00:53:51;;;;;;;6.70;2.10;;;;;;;-145.18;100.00;46648.69;5011270;28;20048;-77
2022/07/10 00:56:19;;;;;;;9.83;2.30;;;;;;;-145.18;100.00;46648.69;5010448;28;20116;-78
2022/07/10 00:58:46;;;;;;;6.30;2.20;;;;;;;-145.18;100.00;46648.69;5010830;28;20022;-78
2022/07/10 01:01:11;;;;;;;10.80;3.03;;;;;;;-145.18;100.00;46648.69;5010742;28;20525;-77
2022/07/10 01:03:37;;;;;;;8.43;2.57;;;;;;;-145.18;100.00;46646.72;5010449;28;20038;-77
2022/07/10 01:06:03;;;;;;;7.97;2.67;;;;;;;-145.18;100.00;46646.72;5010942;28;20054;-76
2022/07/10 01:08:29;;;;;;;6.50;2.70;;;;;;;-145.18;100.00;46640.88;5010568;28;20034;-78
2022/07/10 01:10:54;;;;;;;12.90;2.97;;;;;;;-145.18;100.00;46640.88;4992781;28;20380;-79
2022/07/10 01:13:20;;;;;;;7.73;2.70;;;;;;;-145.18;100.00;46640.88;5010509;28;20038;-77
2022/07/10 01:15:46;;;;;;;11.87;2.90;;;;;;;-145.18;100.00;46640.88;5010878;28;20518;-78
2022/07/10 01:18:12;;;;;;;12.53;2.83;;;;;;;-145.18;100.00;46638.91;5010094;28;20036;-77
2022/07/10 01:20:37;;;;;;;10.97;2.60;;;;;;;-145.18;100.00;46660.41;5011092;28;20034;-76
2022/07/10 01:23:03;;;;;;;8.90;2.60;;;;;;;-145.18;100.00;46636.94;5009811;28;20045;-76
2022/07/10 01:25:28;;;;;;;12.43;2.87;;;;;;;-145.18;100.00;46660.41;5010714;28;20033;-77
2022/07/10 01:27:54;;;;;;;6.37;2.50;;;;;;;-145.18;100.00;46676.03;5009601;28;20037;-77
2022/07/10 01:30:20;;;;;;;9.13;3.03;;;;;;;-145.18;100.00;46660.41;5010771;28;20079;-76
2022/07/10 01:32:47;;;;;;;10.87;2.77;;;;;;;-145.18;100.00;46660.41;5010196;28;20048;-77
2022/07/10 01:35:13;;;;;;;10.83;2.27;;;;;;;-145.18;100.00;46660.41;5010530;28;20038;-76
2022/07/10 01:37:40;;;;;;;12.10;1.90;;;;;;;-145.18;100.00;46660.41;5010025;28;20045;-76
2022/07/10 01:40:06;;;;;;;7.30;2.20;;;;;;;-145.18;100.00;46660.41;5010461;28;20025;-76
2022/07/10 01:42:32;;;;;;;7.90;2.30;;;;;;;-145.18;100.00;46660.41;5009781;28;20554;-77
2022/07/10 01:44:57;;;;;;;11.17;2.00;;;;;;;-145.18;100.00;46638.91;4992539;28;20153;-77
2022/07/10 01:47:27;;;;;;;6.53;2.40;;;;;;;-145.18;100.00;46660.41;5009919;28;20161;-77
2022/07/10 01:49:53;;;;;;;5.93;2.00;;;;;;;-145.18;100.00;46638.91;5010177;28;20145;-77
2022/07/10 01:52:19;;;;;;;7.37;2.20;;;;;;;-145.18;100.00;46636.94;5010029;28;20068;-76
2022/07/10 01:54:45;;;;;;;10.47;2.30;;;;;;;-145.18;100.00;46638.91;5010330;28;20029;-76
2022/07/10 01:57:11;;;;;;;7.93;2.00;;;;;;;-145.18;100.00;46640.88;5009374;28;20045;-76
2022/07/10 01:59:36;;;;;;;8.17;1.80;;;;;;;-145.18;100.00;46660.41;5010173;28;20038;-76
2022/07/10 02:02:01;;;;;;;9.53;3.63;;;;;;;-145.18;100.00;46638.91;5318054;23;20157;-77
2022/07/10 02:04:42;;;;;;;6.13;1.90;;;;;;;-145.18;100.00;46636.94;4980738;28;20035;-78
2022/07/10 02:07:11;;;;;;;10.37;2.13;;;;;;;-145.18;100.00;46660.41;5007970;28;20533;-78
2022/07/10 02:09:39;;;;;;;11.60;2.00;;;;;;;-145.18;100.00;46676.03;5013620;28;20609;-77
2022/07/10 02:12:05;;;;;;;4.00;1.80;;;;;;;-145.18;100.00;46640.88;5007092;28;20396;-77
2022/07/10 02:14:30;;;;;;;12.50;2.10;;;;;;;-145.18;100.00;46642.81;5007104;28;20038;-77
2022/07/10 02:16:56;;;;;;;8.13;2.00;;;;;;;-145.18;100.00;46640.88;4992641;28;20071;-77
2022/07/10 02:19:21;;;;;;;6.23;1.87;;;;;;;-145.18;100.00;46642.81;5005047;28;20030;-78
2022/07/10 02:21:47;;;;;;;7.33;1.90;;;;;;;-145.18;100.00;46636.94;4999464;28;20455;-78
2022/07/10 02:24:12;;;;;;;8.17;1.67;;;;;;;-145.18;100.00;46636.94;5014150;28;20033;-78
2022/07/10 02:26:37;;;;;;;7.10;2.00;;;;;;;-145.18;100.00;46646.72;5013689;28;20038;-78
2022/07/10 02:29:03;;;;;;;7.53;1.93;;;;;;;-145.18;100.00;46638.91;5013945;28;20034;-79
2022/07/10 02:31:29;;;;;;;11.97;2.43;;;;;;;-145.18;100.00;46640.88;5005927;28;20034;-79
2022/07/10 02:33:54;;;;;;;8.67;2.00;;;;;;;-145.18;100.00;46644.78;4994792;28;20031;-79
2022/07/10 02:36:19;;;;;;;5.67;1.73;;;;;;;-145.18;100.00;46640.88;4997884;28;20455;-79
2022/07/10 02:38:45;;;;;;;8.93;2.40;;;;;;;-145.18;100.00;46636.94;5007238;28;20064;-79
2022/07/10 02:41:10;;;;;;;8.37;2.67;;;;;;;-145.18;100.00;46676.03;4996378;28;20556;-79
2022/07/10 02:43:36;;;;;;;9.80;2.23;;;;;;;-145.18;100.00;46638.91;5013491;28;20088;-78
2022/07/10 02:46:01;;;;;;;6.83;2.43;;;;;;;-145.18;100.00;46638.91;5013085;28;20029;-78
2022/07/10 02:48:27;;;;;;;7.07;2.30;;;;;;;-145.18;100.00;46660.41;5010855;28;20041;-79
2022/07/10 02:50:53;;;;;;;5.63;2.23;;;;;;;-145.18;100.00;46660.41;5002025;28;20117;-76
2022/07/10 02:53:18;;;;;;;6.90;1.90;;;;;;;-145.18;100.00;46676.03;5012934;28;20036;-77
2022/07/10 02:55:44;;;;;;;6.90;1.60;;;;;;;-145.18;100.00;46676.03;5013436;28;20120;-77
2022/07/10 02:58:09;;;;;;;9.50;2.30;;;;;;;-145.18;100.00;46660.41;5012727;28;20045;-77
2022/07/10 03:00:35;;;;;;;6.50;2.10;;;;;;;-145.18;100.00;46660.41;5013370;28;20018;-77
2022/07/10 03:03:01;;;;;;;9.03;2.07;;;;;;;-145.18;100.00;46660.41;4993974;28;20054;-77
2022/07/10 03:05:26;;;;;;;7.27;2.23;;;;;;;-145.18;100.00;46660.41;4991986;28;20403;-77
2022/07/10 03:07:52;;;;;;;9.23;1.97;;;;;;;-145.18;100.00;46676.03;4981292;28;20038;-77
2022/07/10 03:10:17;;;;;;;4.43;1.57;;;;;;;-145.18;100.00;46660.41;4993281;28;20038;-77
2022/07/10 03:12:42;;;;;;;8.33;2.27;;;;;;;-145.18;100.00;46660.41;4993101;28;20026;-77
2022/07/10 03:15:08;;;;;;;5.63;2.00;;;;;;;-145.18;100.00;46660.41;4993247;28;20031;-78
2022/07/10 03:17:34;;;;;;;7.30;1.90;;;;;;;-145.18;100.00;46660.41;4992835;28;20455;-78
2022/07/10 03:19:59;;;;;;;7.77;2.10;;;;;;;-145.18;100.00;46660.41;4993194;28;20053;-76
2022/07/10 03:22:25;;;;;;;7.23;2.23;;;;;;;-145.18;100.00;46660.41;4992896;28;20034;-76
2022/07/10 03:24:50;;;;;;;6.27;2.07;;;;;;;-145.18;100.00;46660.41;4993302;28;20045;-77
2022/07/10 03:27:16;;;;;;;8.10;2.17;;;;;;;-145.18;100.00;46636.94;4992757;28;20041;-76
2022/07/10 03:29:41;;;;;;;8.33;2.10;;;;;;;-145.18;100.00;46660.41;4975376;28;20026;-77
2022/07/10 03:32:07;;;;;;;6.07;2.40;;;;;;;-145.18;100.00;46660.41;4992304;28;20025;-76
2022/07/10 03:34:33;;;;;;;7.43;1.90;;;;;;;-145.18;100.00;46660.41;4993049;28;20053;-76
2022/07/10 03:37:03;;;;;;;7.07;2.47;;;;;;;-145.18;100.00;46677.97;4992315;28;20038;-78
2022/07/10 03:39:28;;;;;;;5.30;1.53;;;;;;;-145.18;100.00;46676.03;4991988;28;20185;-77
2022/07/10 03:41:53;;;;;;;10.63;1.80;;;;;;;-145.18;100.00;46660.41;4980025;28;20053;-78
2022/07/10 03:44:19;;;;;;;10.63;1.63;;;;;;;-145.18;100.00;46640.88;4992687;28;20558;-79
2022/07/10 03:46:44;;;;;;;8.93;2.07;;;;;;;-145.18;100.00;46638.91;4993038;28;20426;-79
2022/07/10 03:49:09;;;;;;;18.27;1.90;;;;;;;-145.18;100.00;46640.88;4992668;28;20038;-77
2022/07/10 03:51:35;;;;;;;8.33;2.07;;;;;;;-145.18;100.00;46638.91;4993202;28;20097;-76
2022/07/10 03:54:00;;;;;;;5.47;1.47;;;;;;;-145.18;100.00;46642.81;4992634;28;20049;-77
2022/07/10 03:59:10;;;;;;;9.47;2.33;;;;;;;-145.18;100.00;46642.81;4992388;28;20049;-76
2022/07/10 04:01:35;;;;;;;4.37;2.13;;;;;;;-145.18;100.00;46642.81;4992885;28;20034;-76
2022/07/10 04:04:00;;;;;;;6.93;1.50;;;;;;;-145.18;100.00;46640.88;4992004;28;20080;-76
2022/07/10 04:06:26;;;;;;;5.77;1.80;;;;;;;-145.18;100.00;46646.72;4992737;28;20065;-76
2022/07/10 04:08:51;;;;;;;14.63;3.03;;;;;;;-145.18;100.00;46644.78;4991609;28;20038;-76
2022/07/10 04:11:17;;;;;;;3.57;1.23;;;;;;;-145.18;100.00;46642.81;4992609;28;20064;-76
2022/07/10 04:13:42;;;;;;;9.17;1.50;;;;;;;-145.18;100.00;46644.78;4992069;28;20070;-78
2022/07/10 04:16:12;;;;;;;5.90;1.57;;;;;;;-145.18;100.00;46642.81;4992488;28;20086;-77
2022/07/10 04:18:38;;;;;;;6.20;1.83;;;;;;;-145.18;100.00;46646.72;4988648;28;20049;-77
2022/07/10 04:21:03;;;;;;;9.30;1.70;;;;;;;-145.18;100.00;46646.72;4984200;28;20062;-77
2022/07/10 04:23:28;;;;;;;7.47;1.80;;;;;;;-145.18;100.00;46644.78;4991909;28;20027;-77
2022/07/10 04:25:54;;;;;;;14.73;2.40;;;;;;;-145.18;100.00;46642.81;4989791;28;20376;-77
2022/07/10 04:28:19;;;;;;;13.47;1.97;;;;;;;-145.18;100.00;46644.78;4987796;28;20089;-77
2022/07/10 04:30:44;;;;;;;10.03;1.80;;;;;;;-145.18;100.00;46642.81;4984021;28;20065;-76
2022/07/10 04:33:10;;;;;;;5.63;1.77;;;;;;;-145.18;100.00;46646.72;4984833;28;20497;-76
2022/07/10 04:35:35;;;;;;;8.67;1.53;;;;;;;-145.18;100.00;46638.91;4989094;28;20402;-76
2022/07/10 04:38:00;;;;;;;8.27;2.07;;;;;;;-145.18;100.00;46640.88;4983174;28;20039;-77
2022/07/10 04:40:26;;;;;;;4.87;1.70;;;;;;;-145.18;100.00;46642.81;4982800;28;20138;-76
2022/07/10 04:42:51;;;;;;;7.37;1.67;;;;;;;-145.18;100.00;46638.91;4990692;28;20034;-76
2022/07/10 04:45:16;;;;;;;9.90;1.80;;;;;;;-145.18;100.00;46644.78;4991984;28;20030;-76
2022/07/10 04:47:42;;;;;;;5.70;1.77;;;;;;;-145.18;100.00;46642.81;4970499;28;20038;-76
2022/07/10 04:50:08;;;;;;;8.33;1.50;;;;;;;-145.18;100.00;46646.72;4976128;28;20065;-76
2022/07/10 04:52:33;;;;;;;10.70;2.13;;;;;;;-145.18;100.00;46642.81;4992732;28;20173;-76
2022/07/10 04:54:58;;;;;;;4.50;1.60;;;;;;;-145.18;100.00;46642.81;4983764;28;20054;-76
2022/07/10 04:57:24;;;;;;;4.90;1.60;;;;;;;-145.18;100.00;46646.72;4976352;28;20054;-76
2022/07/10 04:59:49;;;;;;;10.40;2.50;;;;;;;-145.18;100.00;46638.91;4983030;28;20030;-77
2022/07/10 05:02:15;;;;;;;5.67;1.60;;;;;;;-145.18;100.00;46642.81;4977499;28;20051;-77
2022/07/10 05:04:40;;;;;;;12.63;1.77;;;;;;;-145.18;100.00;46644.78;4982362;28;20416;-76
2022/07/10 05:07:05;;;;;;;6.30;1.67;;;;;;;-145.18;100.00;46640.88;4973246;28;20484;-78
2022/07/10 05:09:31;;;;;;;10.10;1.30;;;;;;;-145.18;100.00;46644.78;4983502;28;20547;-78
2022/07/10 05:11:56;;;;;;;6.80;1.63;;;;;;;-145.18;100.00;46646.72;4981544;28;20035;-77
2022/07/10 05:14:22;;;;;;;9.00;1.40;;;;;;;-145.18;100.00;46644.78;4978443;28;20509;-78
2022/07/10 05:16:47;;;;;;;5.67;1.70;;;;;;;-145.18;100.00;46644.78;4983215;28;20109;-77
2022/07/10 05:19:12;;;;;;;6.17;1.77;;;;;;;-145.18;100.00;46648.69;4977776;28;20026;-76
2022/07/10 05:21:38;;;;;;;3.60;1.23;;;;;;;-145.18;100.00;46650.63;4982030;28;20106;-77
2022/07/10 05:24:03;;;;;;;7.73;1.50;;;;;;;-145.18;100.00;46644.78;4974798;28;20101;-79
2022/07/10 05:26:29;;;;;;;10.83;1.67;;;;;;;-145.18;100.00;46644.78;4974253;28;20125;-76
2022/07/10 05:28:54;;;;;;;4.93;1.33;;;;;;;-145.18;100.00;46642.81;4979273;28;20394;-76
2022/07/10 05:31:19;;;;;;;6.13;1.40;;;;;;;-145.18;100.00;46646.72;4982540;28;20042;-76
2022/07/10 05:33:45;;;;;;;7.00;1.83;;;;;;;-145.18;100.00;46648.69;4986193;28;20027;-76
2022/07/10 05:36:10;;;;;;;11.73;2.13;;;;;;;-145.18;100.00;46652.59;4975065;28;20511;-76
2022/07/10 05:38:36;;;;;;;7.47;1.00;;;;;;;-145.18;100.00;46654.53;4958465;28;20035;-76
2022/07/10 05:41:01;;;;;;;7.20;2.10;;;;;;;-145.18;100.00;46652.59;4974172;28;20078;-75
2022/07/10 05:43:27;;;;;;;9.43;1.80;;;;;;;-145.18;100.00;46644.78;4990239;28;20121;-76
2022/07/10 05:45:52;;;;;;;6.63;1.50;;;;;;;-145.18;100.00;46644.78;4990913;28;20110;-76
2022/07/10 05:48:19;;;;;;;13.17;2.03;;;;;;;-145.18;100.00;46644.78;4990248;28;20034;-76
2022/07/10 05:50:44;;;;;;;5.43;1.50;;;;;;;-145.18;100.00;46646.72;4991403;28;20068;-75
2022/07/10 05:53:10;;;;;;;7.23;1.33;;;;;;;-145.18;100.00;46650.63;4970957;28;20062;-76
2022/07/10 05:55:35;;;;;;;7.40;1.43;;;;;;;-145.18;100.00;46644.78;4991046;28;20026;-75
2022/07/10 05:58:00;;;;;;;10.10;1.60;;;;;;;-145.18;100.00;46648.69;4990376;28;20034;-75
2022/07/10 06:00:26;;;;;;;10.93;1.47;;;;;;;-145.18;100.00;46644.78;4993658;28;20037;-76
2022/07/10 06:02:51;;;;;;;5.87;1.47;;;;;;;-145.18;100.00;46648.69;4998315;28;20043;-76
2022/07/10 06:05:17;;;;;;;5.33;1.60;;;;;;;-145.18;100.00;46650.63;4987862;28;20240;-75
2022/07/10 06:07:42;;;;;;;9.33;1.60;;;;;;;-145.18;100.00;46644.78;4981557;28;20053;-75
2022/07/10 06:10:08;;;;;;;6.40;1.60;;;;;;;-145.18;100.00;46650.63;4987693;28;20072;-76
2022/07/10 06:12:33;;;;;;;11.03;1.47;;;;;;;-145.18;100.00;46648.69;4982252;28;20037;-76
2022/07/10 06:14:58;;;;;;;8.90;1.53;;;;;;;-145.18;100.00;46644.78;4985142;28;20172;-76
2022/07/10 06:17:24;;;;;;;9.70;1.70;;;;;;;-145.18;100.00;46650.63;4984318;28;20128;-76
2022/07/10 06:19:49;;;;;;;7.87;1.43;;;;;;;-145.18;100.00;46646.72;4965971;28;20166;-76
2022/07/10 06:22:30;;;;;;;6.00;1.37;;;;;;;-145.18;100.00;46652.59;4980046;28;20480;-76
2022/07/10 06:24:56;;;;;;;9.20;1.53;;;;;;;-145.18;100.00;46650.63;4976949;28;20030;-76
2022/07/10 06:27:21;;;;;;;10.10;1.70;;;;;;;-145.18;100.00;46644.78;4982241;28;20154;-75
2022/07/10 06:29:47;;;;;;;6.97;1.60;;;;;;;-145.18;100.00;46652.59;4983665;28;20025;-75
2022/07/10 06:32:12;;;;;;;6.97;1.30;;;;;;;-145.18;100.00;46654.53;4984765;28;20109;-75
2022/07/10 06:34:38;;;;;;;7.13;1.70;;;;;;;-145.18;100.00;46652.59;4982415;28;20173;-76
2022/07/10 06:37:03;;;;;;;8.43;1.53;;;;;;;-145.18;100.00;46654.53;4985308;28;20034;-76
2022/07/10 06:39:35;;;;;;;4.60;0.97;;;;;;;-145.18;100.00;46650.63;4980595;28;20046;-76
2022/07/10 06:42:04;;;;;;;6.70;1.13;;;;;;;-145.18;100.00;46654.53;4977439;28;20089;-75
2022/07/10 06:44:29;;;;;;;9.67;1.90;;;;;;;-145.18;100.00;46660.41;4988076;28;20690;-76
2022/07/10 06:49:40;;;;;;;11.57;1.40;;;;;;;-145.18;100.00;46650.63;4977652;28;20042;-76
2022/07/10 06:52:06;;;;;;;8.47;1.60;;;;;;;-145.18;100.00;46656.50;4974135;28;20041;-76
2022/07/10 06:54:32;;;;;;;10.30;1.83;;;;;;;-145.18;100.00;46656.50;4980037;28;20075;-77
2022/07/10 06:56:58;;;;;;;6.57;1.73;;;;;;;-145.18;100.00;46656.50;4977973;28;20037;-76
2022/07/10 06:59:23;;;;;;;6.23;1.43;;;;;;;-145.18;100.00;46656.50;4976375;28;20724;-76
2022/07/10 07:01:49;;;;;;;10.17;1.73;;;;;;;-145.18;100.00;46658.44;4972938;28;20039;-76
2022/07/10 07:04:14;;;;;;;8.57;1.20;;;;;;;-145.18;100.00;46656.50;4973843;28;20033;-77
2022/07/10 07:06:39;;;;;;;5.93;1.90;;;;;;;-145.18;100.00;46660.41;4981170;28;20065;-76
2022/07/10 07:09:05;;;;;;;8.10;1.30;;;;;;;-145.18;100.00;46656.50;4962120;28;20233;-76
2022/07/10 07:11:30;;;;;;;6.73;1.50;;;;;;;-145.18;100.00;46656.50;4983844;28;20187;-76
2022/07/10 07:13:56;;;;;;;6.67;1.10;;;;;;;-145.18;100.00;46656.50;4978304;28;20065;-77
2022/07/10 07:16:27;;;;;;;8.63;2.10;;;;;;;-145.18;100.00;46658.44;4981595;28;20505;-77
2022/07/10 07:18:55;;;;;;;13.47;1.83;;;;;;;-145.18;100.00;46652.59;4979177;28;20034;-76
2022/07/10 07:24:05;;;;;;;9.40;1.93;;;;;;;-145.18;100.00;46656.50;4980453;28;20078;-76
2022/07/10 07:26:30;;;;;;;5.50;1.07;;;;;;;-145.18;100.00;46662.34;4973377;28;20039;-77
2022/07/10 07:28:55;;;;;;;12.00;1.93;;;;;;;-145.18;100.00;46656.50;4968558;28;20493;-76
2022/07/10 07:31:21;;;;;;;4.90;1.80;;;;;;;-145.18;100.00;46660.41;4974295;28;20027;-76
2022/07/10 07:33:46;;;;;;;4.10;1.70;;;;;;;-145.18;100.00;46660.41;4974316;28;20527;-77
2022/07/10 07:36:12;;;;;;;4.33;1.10;;;;;;;-145.18;100.00;46662.34;4974298;28;20106;-76
2022/07/10 07:38:37;;;;;;;8.03;1.50;;;;;;;-145.18;100.00;46666.25;4973879;28;20039;-76
2022/07/10 07:41:03;;;;;;;10.73;2.10;;;;;;;-145.18;100.00;46666.25;4973298;28;20042;-76
2022/07/10 07:43:28;;;;;;;6.63;1.23;;;;;;;-145.18;100.00;46662.34;4992362;28;20031;-76
2022/07/10 07:45:53;;;;;;;8.57;1.77;;;;;;;-145.18;100.00;46664.31;4992573;28;20023;-76
2022/07/10 07:48:19;;;;;;;7.20;1.83;;;;;;;-145.18;100.00;46664.31;4992092;28;20117;-76
2022/07/10 07:50:44;;;;;;;10.03;1.33;;;;;;;-145.18;100.00;46664.31;4992513;28;20529;-77
2022/07/10 07:53:10;;;;;;;7.40;1.57;;;;;;;-145.18;100.00;46660.41;4991699;28;20030;-76
2022/07/10 07:55:36;;;;;;;10.33;1.90;;;;;;;-145.18;100.00;46668.22;4992784;28;20042;-76
2022/07/10 07:58:02;;;;;;;4.47;1.20;;;;;;;-145.18;100.00;46662.34;4992278;28;20050;-77
2022/07/10 08:00:28;;;;;;;5.50;1.53;;;;;;;-145.18;100.00;46666.25;4990056;28;20035;-76
2022/07/10 08:02:55;;;;;;;5.97;1.90;;;;;;;-145.18;100.00;46664.31;4991602;28;20043;-76
2022/07/10 08:05:23;;;;;;;5.67;1.67;;;;;;;-145.18;100.00;46666.25;4998246;28;20046;-76
2022/07/10 08:07:57;;;;;;;4.73;1.47;;;;;;;-145.18;100.00;46664.31;4991728;28;20038;-77
2022/07/10 08:10:25;;;;;;;6.20;1.77;;;;;;;-145.18;100.00;46664.31;4992092;28;20122;-76
2022/07/10 08:12:51;;;;;;;4.70;1.27;;;;;;;-145.18;100.00;46664.31;4991784;28;20081;-76
2022/07/10 08:15:18;;;;;;;7.60;1.97;;;;;;;-145.18;100.00;46668.22;4970551;28;20038;-76
2022/07/10 08:17:47;;;;;;;6.67;1.70;;;;;;;-145.18;100.00;46666.25;4992178;28;20034;-76
2022/07/10 08:20:14;;;;;;;8.80;1.20;;;;;;;-145.18;100.00;46656.50;4990533;28;20113;-76
2022/07/10 08:22:42;;;;;;;6.40;1.70;;;;;;;-145.18;100.00;46664.31;4978693;28;20042;-76
2022/07/10 08:25:08;;;;;;;6.13;1.40;;;;;;;-145.18;100.00;46664.31;4991218;28;20038;-76
2022/07/10 08:27:34;;;;;;;5.23;2.10;;;;;;;-145.18;100.00;46656.50;4991343;28;20517;-76
2022/07/10 08:30:00;;;;;;;6.70;1.60;;;;;;;-145.18;100.00;46656.50;4991360;28;20095;-76
2022/07/10 08:32:27;;;;;;;3.47;1.40;;;;;;;-145.18;100.00;46654.53;4991634;28;20061;-77
2022/07/10 08:34:52;;;;;;;4.53;1.57;;;;;;;-145.18;100.00;46662.34;4990904;28;20456;-76
2022/07/10 08:37:19;;;;;;;7.23;1.70;;;;;;;-145.18;100.00;46662.34;4991716;28;20026;-76
2022/07/10 08:39:45;;;;;;;5.10;1.50;;;;;;;-145.18;100.00;46664.31;4988554;28;20023;-76
2022/07/10 08:42:11;;;;;;;6.97;1.80;;;;;;;-145.18;100.00;46658.44;4980985;28;20092;-76
2022/07/10 08:44:37;;;;;;;5.87;1.90;;;;;;;-145.18;100.00;46668.22;4991386;28;20086;-76
2022/07/10 08:47:03;;;;;;;4.07;1.10;;;;;;;-145.18;100.00;46652.59;4990978;28;20529;-76
2022/07/10 08:49:30;;;;;;;6.53;1.70;;;;;;;-145.18;100.00;46629.13;4991190;28;20034;-76
2022/07/10 08:52:04;;;;;;;5.97;1.93;;;;;;;-145.18;100.00;46636.94;4990876;28;20023;-76
2022/07/10 08:54:31;;;;;;;5.73;1.40;;;;;;;-145.18;100.00;46623.28;4991272;28;20038;-76
2022/07/10 08:56:58;;;;;;;11.33;1.80;;;;;;;-145.18;100.00;46635.00;4989498;28;20468;-76
2022/07/10 08:59:24;;;;;;;5.60;1.37;;;;;;;-145.18;100.00;46586.16;4990639;28;20038;-76
2022/07/10 09:01:49;;;;;;;5.07;1.47;;;;;;;-145.18;100.00;46535.38;4988246;28;20072;-76
2022/07/10 09:04:19;;;;;;;5.73;1.60;;;;;;;-145.18;100.00;46533.44;4990927;28;20048;-76
2022/07/10 09:06:45;;;;;;;5.00;1.70;;;;;;;-145.18;100.00;46543.19;4991003;28;20030;-75
2022/07/10 09:09:11;;;;;;;4.20;1.70;;;;;;;-145.18;100.00;46541.25;4990676;28;20501;-76
2022/07/10 09:11:40;;;;;;;5.23;1.33;;;;;;;-145.18;100.00;46537.34;4982940;28;20035;-75
2022/07/10 09:14:11;;;;;;;9.40;1.63;;;;;;;-145.18;100.00;46537.34;4976835;28;20072;-76
2022/07/10 09:16:42;;;;;;;5.90;1.40;;;;;;;-145.18;100.00;46541.25;4991276;28;20035;-76
2022/07/10 09:19:22;;;;;;;5.40;1.70;;;;;;;-145.18;100.00;46541.25;4990259;28;20062;-76
2022/07/10 09:22:09;;;;;;;4.40;1.90;;;;;;;-145.18;100.00;46537.34;4990901;28;20030;-76
2022/07/10 09:24:45;;;;;;;7.70;1.53;;;;;;;-145.18;100.00;46547.09;4979130;28;20046;-76
2022/07/10 09:27:14;;;;;;;6.30;1.33;;;;;;;-145.18;100.00;46551.00;4990250;28;20121;-76
2022/07/10 09:29:54;;;;;;;4.57;1.40;;;;;;;-145.18;100.00;46547.09;4990237;28;20110;-76
2022/07/10 09:32:20;;;;;;;5.43;1.27;;;;;;;-145.18;100.00;46541.25;4990833;28;20034;-76
2022/07/10 09:34:48;;;;;;;4.40;1.30;;;;;;;-145.18;100.00;46539.28;4990526;28;20039;-76
2022/07/10 09:37:29;;;;;;;6.10;1.53;;;;;;;-145.18;100.00;46543.19;4990730;28;20030;-76
2022/07/10 09:39:55;;;;;;;4.87;1.60;;;;;;;-145.18;100.00;46541.25;4985502;28;20419;-76
2022/07/10 09:42:31;;;;;;;4.77;1.47;;;;;;;-145.18;100.00;46539.28;4981246;28;20116;-76
2022/07/10 09:45:12;;;;;;;3.70;1.40;;;;;;;-145.18;100.00;46537.34;4989808;28;20030;-76
2022/07/10 09:47:42;;;;;;;5.80;1.47;;;;;;;-145.18;100.00;46547.09;4990186;28;20506;-76
2022/07/10 09:50:22;;;;;;;2.83;1.20;;;;;;;-145.18;100.00;46547.09;4988921;28;20027;-76
2022/07/10 09:52:51;;;;;;;4.87;1.67;;;;;;;-145.18;100.00;46551.00;4990101;28;20084;-76
2022/07/10 09:55:19;;;;;;;5.03;1.43;;;;;;;-145.18;100.00;46543.19;4989862;28;20026;-75
2022/07/10 09:57:57;;;;;;;4.37;1.50;;;;;;;-145.18;100.00;46541.25;4990733;28;20527;-75
2022/07/10 10:00:27;;;;;;;5.00;1.50;;;;;;;-145.18;100.00;46541.25;4987819;28;20464;-75
2022/07/10 10:03:00;;;;;;;3.20;1.40;;;;;;;-145.18;100.00;46552.97;4990247;28;20050;-76
2022/07/10 10:05:42;;;;;;;11.27;1.90;;;;;;;-145.18;100.00;46551.00;4989735;28;20096;-76
2022/07/10 10:08:16;;;;;;;4.60;1.60;;;;;;;-145.18;100.00;46543.19;4988789;28;20082;-76
2022/07/10 10:10:49;;;;;;;9.43;1.80;;;;;;;-145.18;100.00;46554.91;4990372;28;20038;-76
2022/07/10 10:13:23;;;;;;;6.07;1.53;;;;;;;-145.18;100.00;46543.19;4989911;28;20443;-76
2022/07/10 10:15:50;;;;;;;6.47;1.40;;;;;;;-145.18;100.00;46539.28;4990138;28;20087;-77
2022/07/10 10:18:20;;;;;;;4.90;1.60;;;;;;;-145.18;100.00;46541.25;4978789;28;20065;-77
2022/07/10 10:20:47;;;;;;;4.30;1.27;;;;;;;-145.18;100.00;46543.19;4974143;28;20045;-77
2022/07/10 10:23:17;;;;;;;3.03;1.57;;;;;;;-145.18;100.00;46551.00;4973063;28;20123;-76
2022/07/10 10:25:43;;;;;;;3.60;1.07;;;;;;;-145.18;100.00;46541.25;4973518;28;20039;-76
2022/07/10 10:28:10;;;;;;;3.40;1.40;;;;;;;-145.18;100.00;46543.19;4989829;28;20388;-76
2022/07/10 10:30:42;;;;;;;5.27;1.60;;;;;;;-145.18;100.00;46549.06;4989535;28;20166;-76
2022/07/10 10:33:32;;;;;;;8.47;2.50;;;;;;;-145.18;100.00;46535.38;4980483;28;20034;-76
2022/07/10 10:35:59;;;;;;;2.80;1.33;;;;;;;-145.18;100.00;46549.06;4989177;28;20023;-77
2022/07/10 10:38:24;;;;;;;4.07;1.30;;;;;;;-145.18;100.00;46547.09;4991514;28;20117;-77
2022/07/10 10:40:50;;;;;;;3.67;1.43;;;;;;;-145.18;100.00;46549.06;4979747;28;20110;-77
2022/07/10 10:43:20;;;;;;;3.97;1.10;;;;;;;-145.18;100.00;46547.09;4970193;28;20034;-76
2022/07/10 10:45:47;;;;;;;4.80;1.20;;;;;;;-145.18;100.00;46552.97;4967642;28;20038;-76
2022/07/10 10:48:15;;;;;;;4.27;1.87;;;;;;;-145.18;100.00;46549.06;4993880;28;20050;-76
2022/07/10 10:50:42;;;;;;;5.33;2.07;;;;;;;-145.18;100.00;46549.06;4993632;28;20497;-77
2022/07/10 10:53:22;;;;;;;5.47;1.43;;;;;;;-145.18;100.00;46537.34;4993260;28;20114;-77
2022/07/10 10:55:59;;;;;;;4.07;1.23;;;;;;;-145.18;100.00;46547.09;4991680;28;20030;-76
2022/07/10 10:58:25;;;;;;;5.73;1.83;;;;;;;-145.18;100.00;46552.97;4991859;28;20077;-77
2022/07/10 11:00:51;;;;;;;4.83;1.30;;;;;;;-145.18;100.00;46547.09;4989461;28;20038;-77
2022/07/10 11:03:19;;;;;;;7.70;1.80;;;;;;;-145.18;100.00;46556.88;4979565;28;20050;-77
2022/07/10 11:05:46;;;;;;;4.73;0.93;;;;;;;-145.18;100.00;46556.88;4979182;28;20495;-76
2022/07/10 11:08:12;;;;;;;6.40;1.57;;;;;;;-145.18;100.00;46552.97;4984374;28;20629;-77
2022/07/10 11:10:44;;;;;;;6.07;1.60;;;;;;;-145.18;100.00;46556.88;4979241;28;20043;-76
2022/07/10 11:13:14;;;;;;;3.97;1.20;;;;;;;-145.18;100.00;46554.91;4987873;28;20451;-76